sensor_id;sensor_type;location;lat;lon;timestamp;temperature;humidity
11035;DHT22;5571;48.110;-1.706;2023-09-12T00:00:55;20.40;99.90
11035;DHT22;5571;48.110;-1.706;2023-09-12T00:03:22;20.40;99.90
11035;DHT22;5571;48.110;-1.706;2023-09-12T00:05:55;20.30;99.90
11035;DHT22;5571;48.110;-1.706;2023-09-12T00:08:21;20.40;99.90
11035;DHT22;5571;48.110;-1.706;2023-09-12T00:13:26;20.30;99.90
11035;DHT22;5571;48.110;-1.706;2023-09-12T00:15:52;20.40;99.90
11035;DHT22;5571;48.110;-1.706;2023-09-12T00:18:17;20.40;99.90
11035;DHT22;5571;48.110;-1.706;2023-09-12T00:20:43;20.40;99.90
11035;DHT22;5571;48.110;-1.706;2023-09-12T00:23:08;20.40;99.90
11035;DHT22;5571;48.110;-1.706;2023-09-12T00:25:34;20.40;99.90
11035;DHT22;5571;48.110;-1.706;2023-09-12T00:27:59;20.50;99.90
11035;DHT22;5571;48.110;-1.706;2023-09-12T00:30:25;20.40;99.90
11035;DHT22;5571;48.110;-1.706;2023-09-12T00:32:51;20.40;99.90
11035;DHT22;5571;48.110;-1.706;2023-09-12T00:35:16;20.40;99.90
11035;DHT22;5571;48.110;-1.706;2023-09-12T00:37:42;20.40;99.90
11035;DHT22;5571;48.110;-1.706;2023-09-12T00:40:07;20.40;99.90
11035;DHT22;5571;48.110;-1.706;2023-09-12T00:42:33;20.40;99.90
11035;DHT22;5571;48.110;-1.706;2023-09-12T00:44:59;20.40;99.90
11035;DHT22;5571;48.110;-1.706;2023-09-12T00:47:25;20.40;99.90
11035;DHT22;5571;48.110;-1.706;2023-09-12T00:49:53;20.50;99.90
11035;DHT22;5571;48.110;-1.706;2023-09-12T00:52:20;20.40;99.90
11035;DHT22;5571;48.110;-1.706;2023-09-12T00:54:48;20.40;99.90
11035;DHT22;5571;48.110;-1.706;2023-09-12T00:57:14;20.30;99.90
11035;DHT22;5571;48.110;-1.706;2023-09-12T00:59:39;20.30;99.90
11035;DHT22;5571;48.110;-1.706;2023-09-12T01:02:06;20.30;99.90
11035;DHT22;5571;48.110;-1.706;2023-09-12T01:04:32;20.30;99.90
11035;DHT22;5571;48.110;-1.706;2023-09-12T01:06:58;20.30;99.90
11035;DHT22;5571;48.110;-1.706;2023-09-12T01:09:24;20.30;99.90
11035;DHT22;5571;48.110;-1.706;2023-09-12T01:11:50;20.20;99.90
11035;DHT22;5571;48.110;-1.706;2023-09-12T01:14:15;20.10;99.90
11035;DHT22;5571;48.110;-1.706;2023-09-12T01:16:41;19.90;99.90
11035;DHT22;5571;48.110;-1.706;2023-09-12T01:19:08;19.90;99.90
11035;DHT22;5571;48.110;-1.706;2023-09-12T01:27:30;19.90;99.90
11035;DHT22;5571;48.110;-1.706;2023-09-12T01:30:01;19.80;99.90
11035;DHT22;5571;48.110;-1.706;2023-09-12T01:32:29;19.70;99.90
11035;DHT22;5571;48.110;-1.706;2023-09-12T01:34:55;19.70;99.90
11035;DHT22;5571;48.110;-1.706;2023-09-12T01:37:20;19.70;99.90
11035;DHT22;5571;48.110;-1.706;2023-09-12T01:39:46;19.60;99.90
11035;DHT22;5571;48.110;-1.706;2023-09-12T01:42:15;19.60;99.90
11035;DHT22;5571;48.110;-1.706;2023-09-12T01:44:46;19.60;99.90
11035;DHT22;5571;48.110;-1.706;2023-09-12T01:47:13;19.60;99.90
11035;DHT22;5571;48.110;-1.706;2023-09-12T01:49:43;19.50;99.90
11035;DHT22;5571;48.110;-1.706;2023-09-12T01:52:11;19.50;99.90
11035;DHT22;5571;48.110;-1.706;2023-09-12T01:54:39;19.50;99.90
11035;DHT22;5571;48.110;-1.706;2023-09-12T01:57:06;19.40;99.90
11035;DHT22;5571;48.110;-1.706;2023-09-12T01:59:33;19.40;99.90
11035;DHT22;5571;48.110;-1.706;2023-09-12T02:01:59;19.40;99.90
11035;DHT22;5571;48.110;-1.706;2023-09-12T02:04:25;19.40;99.90
11035;DHT22;5571;48.110;-1.706;2023-09-12T02:06:50;19.50;99.90
11035;DHT22;5571;48.110;-1.706;2023-09-12T02:09:16;19.50;99.90
11035;DHT22;5571;48.110;-1.706;2023-09-12T02:11:42;19.60;99.90
11035;DHT22;5571;48.110;-1.706;2023-09-12T02:14:07;19.60;99.90
11035;DHT22;5571;48.110;-1.706;2023-09-12T02:16:36;19.60;99.90
11035;DHT22;5571;48.110;-1.706;2023-09-12T02:19:03;19.70;99.90
11035;DHT22;5571;48.110;-1.706;2023-09-12T02:21:29;19.70;99.90
11035;DHT22;5571;48.110;-1.706;2023-09-12T02:23:55;19.70;99.90
11035;DHT22;5571;48.110;-1.706;2023-09-12T02:26:20;19.70;99.90
11035;DHT22;5571;48.110;-1.706;2023-09-12T02:28:46;19.80;99.90
11035;DHT22;5571;48.110;-1.706;2023-09-12T02:31:12;19.80;99.90
11035;DHT22;5571;48.110;-1.706;2023-09-12T02:33:38;19.80;99.90
11035;DHT22;5571;48.110;-1.706;2023-09-12T02:36:04;19.80;99.90
11035;DHT22;5571;48.110;-1.706;2023-09-12T02:38:30;19.80;99.90
11035;DHT22;5571;48.110;-1.706;2023-09-12T02:40:56;19.70;99.90
11035;DHT22;5571;48.110;-1.706;2023-09-12T02:43:21;19.70;99.90
11035;DHT22;5571;48.110;-1.706;2023-09-12T02:45:47;19.70;99.90
11035;DHT22;5571;48.110;-1.706;2023-09-12T02:48:13;19.60;99.90
11035;DHT22;5571;48.110;-1.706;2023-09-12T02:50:39;19.60;99.90
11035;DHT22;5571;48.110;-1.706;2023-09-12T02:53:04;19.50;99.90
11035;DHT22;5571;48.110;-1.706;2023-09-12T02:55:31;19.50;99.90
11035;DHT22;5571;48.110;-1.706;2023-09-12T02:57:57;19.50;99.90
11035;DHT22;5571;48.110;-1.706;2023-09-12T03:00:22;19.40;99.90
11035;DHT22;5571;48.110;-1.706;2023-09-12T03:02:49;19.40;99.90
11035;DHT22;5571;48.110;-1.706;2023-09-12T03:05:15;19.40;99.90
11035;DHT22;5571;48.110;-1.706;2023-09-12T03:07:41;19.40;99.90
11035;DHT22;5571;48.110;-1.706;2023-09-12T03:10:06;19.40;99.90
11035;DHT22;5571;48.110;-1.706;2023-09-12T03:12:32;19.40;99.90
11035;DHT22;5571;48.110;-1.706;2023-09-12T03:14:58;19.40;99.90
11035;DHT22;5571;48.110;-1.706;2023-09-12T03:17:23;19.40;99.90
11035;DHT22;5571;48.110;-1.706;2023-09-12T03:19:49;19.40;99.90
11035;DHT22;5571;48.110;-1.706;2023-09-12T03:22:15;19.40;99.90
11035;DHT22;5571;48.110;-1.706;2023-09-12T03:24:40;19.50;99.90
11035;DHT22;5571;48.110;-1.706;2023-09-12T03:27:07;19.50;99.90
11035;DHT22;5571;48.110;-1.706;2023-09-12T03:29:33;19.50;99.90
11035;DHT22;5571;48.110;-1.706;2023-09-12T03:31:59;19.50;99.90
11035;DHT22;5571;48.110;-1.706;2023-09-12T03:34:24;19.60;99.90
11035;DHT22;5571;48.110;-1.706;2023-09-12T03:36:50;19.60;99.90
11035;DHT22;5571;48.110;-1.706;2023-09-12T03:39:15;19.60;99.90
11035;DHT22;5571;48.110;-1.706;2023-09-12T03:41:41;19.60;99.90
11035;DHT22;5571;48.110;-1.706;2023-09-12T03:44:07;19.60;99.90
11035;DHT22;5571;48.110;-1.706;2023-09-12T03:46:32;19.70;99.90
11035;DHT22;5571;48.110;-1.706;2023-09-12T03:48:58;19.70;99.90
11035;DHT22;5571;48.110;-1.706;2023-09-12T03:51:24;19.60;99.90
11035;DHT22;5571;48.110;-1.706;2023-09-12T03:53:49;19.60;99.90
11035;DHT22;5571;48.110;-1.706;2023-09-12T03:56:16;19.50;99.90
11035;DHT22;5571;48.110;-1.706;2023-09-12T03:58:42;19.40;99.90
11035;DHT22;5571;48.110;-1.706;2023-09-12T04:01:07;19.30;99.90
11035;DHT22;5571;48.110;-1.706;2023-09-12T04:03:34;19.30;99.90
11035;DHT22;5571;48.110;-1.706;2023-09-12T04:06:00;19.30;99.90
11035;DHT22;5571;48.110;-1.706;2023-09-12T04:08:25;19.20;99.90
11035;DHT22;5571;48.110;-1.706;2023-09-12T04:10:51;19.20;99.90
11035;DHT22;5571;48.110;-1.706;2023-09-12T04:13:16;19.20;99.90
11035;DHT22;5571;48.110;-1.706;2023-09-12T04:15:42;19.20;99.90
11035;DHT22;5571;48.110;-1.706;2023-09-12T04:18:07;19.20;99.90
11035;DHT22;5571;48.110;-1.706;2023-09-12T04:20:33;19.20;99.90
11035;DHT22;5571;48.110;-1.706;2023-09-12T04:23:02;19.20;99.90
11035;DHT22;5571;48.110;-1.706;2023-09-12T04:25:29;19.20;99.90
11035;DHT22;5571;48.110;-1.706;2023-09-12T04:27:55;19.20;99.90
11035;DHT22;5571;48.110;-1.706;2023-09-12T04:30:20;19.20;99.90
11035;DHT22;5571;48.110;-1.706;2023-09-12T04:32:46;19.20;99.90
11035;DHT22;5571;48.110;-1.706;2023-09-12T04:35:11;19.30;99.90
11035;DHT22;5571;48.110;-1.706;2023-09-12T04:37:37;19.30;99.90
11035;DHT22;5571;48.110;-1.706;2023-09-12T04:40:03;19.30;99.90
11035;DHT22;5571;48.110;-1.706;2023-09-12T04:42:31;19.30;99.90
11035;DHT22;5571;48.110;-1.706;2023-09-12T04:44:57;19.30;99.90
11035;DHT22;5571;48.110;-1.706;2023-09-12T04:47:22;19.30;99.90
11035;DHT22;5571;48.110;-1.706;2023-09-12T04:49:48;19.30;99.90
11035;DHT22;5571;48.110;-1.706;2023-09-12T04:52:14;19.30;99.90
11035;DHT22;5571;48.110;-1.706;2023-09-12T04:54:40;19.30;99.90
11035;DHT22;5571;48.110;-1.706;2023-09-12T04:57:05;19.30;99.90
11035;DHT22;5571;48.110;-1.706;2023-09-12T04:59:32;19.30;99.90
11035;DHT22;5571;48.110;-1.706;2023-09-12T05:01:58;19.20;99.90
11035;DHT22;5571;48.110;-1.706;2023-09-12T05:04:23;19.30;99.90
11035;DHT22;5571;48.110;-1.706;2023-09-12T05:06:49;19.30;99.90
11035;DHT22;5571;48.110;-1.706;2023-09-12T05:09:14;19.20;99.90
11035;DHT22;5571;48.110;-1.706;2023-09-12T05:11:40;19.20;99.90
11035;DHT22;5571;48.110;-1.706;2023-09-12T05:14:06;19.20;99.90
11035;DHT22;5571;48.110;-1.706;2023-09-12T05:16:31;19.20;99.90
11035;DHT22;5571;48.110;-1.706;2023-09-12T05:18:57;19.20;99.90
11035;DHT22;5571;48.110;-1.706;2023-09-12T05:21:23;19.10;99.90
11035;DHT22;5571;48.110;-1.706;2023-09-12T05:23:48;19.10;99.90
11035;DHT22;5571;48.110;-1.706;2023-09-12T05:26:14;19.10;99.90
11035;DHT22;5571;48.110;-1.706;2023-09-12T05:28:40;19.00;99.90
11035;DHT22;5571;48.110;-1.706;2023-09-12T05:31:05;19.00;99.90
11035;DHT22;5571;48.110;-1.706;2023-09-12T05:33:31;18.90;99.90
11035;DHT22;5571;48.110;-1.706;2023-09-12T05:35:56;18.90;99.90
11035;DHT22;5571;48.110;-1.706;2023-09-12T05:38:22;18.90;99.90
11035;DHT22;5571;48.110;-1.706;2023-09-12T05:40:48;19.00;99.90
11035;DHT22;5571;48.110;-1.706;2023-09-12T05:43:16;19.00;99.90
11035;DHT22;5571;48.110;-1.706;2023-09-12T05:45:42;19.00;99.90
11035;DHT22;5571;48.110;-1.706;2023-09-12T05:48:08;18.90;99.90
11035;DHT22;5571;48.110;-1.706;2023-09-12T05:50:36;18.90;99.90
11035;DHT22;5571;48.110;-1.706;2023-09-12T05:53:02;19.00;99.90
11035;DHT22;5571;48.110;-1.706;2023-09-12T05:55:27;19.00;99.90
11035;DHT22;5571;48.110;-1.706;2023-09-12T05:57:53;19.00;99.90
11035;DHT22;5571;48.110;-1.706;2023-09-12T06:00:19;19.00;99.90
11035;DHT22;5571;48.110;-1.706;2023-09-12T06:02:46;19.00;99.90
11035;DHT22;5571;48.110;-1.706;2023-09-12T06:05:12;18.90;99.90
11035;DHT22;5571;48.110;-1.706;2023-09-12T06:07:38;18.90;99.90
11035;DHT22;5571;48.110;-1.706;2023-09-12T06:10:06;18.90;99.90
11035;DHT22;5571;48.110;-1.706;2023-09-12T06:12:32;18.80;99.90
11035;DHT22;5571;48.110;-1.706;2023-09-12T06:14:58;18.90;99.90
11035;DHT22;5571;48.110;-1.706;2023-09-12T06:17:24;18.80;99.90
11035;DHT22;5571;48.110;-1.706;2023-09-12T06:19:50;18.80;99.90
11035;DHT22;5571;48.110;-1.706;2023-09-12T06:22:16;18.80;99.90
11035;DHT22;5571;48.110;-1.706;2023-09-12T06:24:43;18.80;99.90
11035;DHT22;5571;48.110;-1.706;2023-09-12T06:27:09;18.80;99.90
11035;DHT22;5571;48.110;-1.706;2023-09-12T06:29:37;18.90;99.90
11035;DHT22;5571;48.110;-1.706;2023-09-12T06:32:04;18.90;99.90
11035;DHT22;5571;48.110;-1.706;2023-09-12T06:34:29;18.90;99.90
11035;DHT22;5571;48.110;-1.706;2023-09-12T06:36:55;19.00;99.90
11035;DHT22;5571;48.110;-1.706;2023-09-12T06:39:21;19.00;99.90
11035;DHT22;5571;48.110;-1.706;2023-09-12T06:41:46;19.00;99.90
11035;DHT22;5571;48.110;-1.706;2023-09-12T06:44:12;19.10;99.90
11035;DHT22;5571;48.110;-1.706;2023-09-12T06:46:37;19.10;99.90
11035;DHT22;5571;48.110;-1.706;2023-09-12T06:49:03;19.10;99.90
11035;DHT22;5571;48.110;-1.706;2023-09-12T06:51:29;19.10;99.90
11035;DHT22;5571;48.110;-1.706;2023-09-12T06:53:55;19.20;99.90
11035;DHT22;5571;48.110;-1.706;2023-09-12T06:56:21;19.30;99.90
11035;DHT22;5571;48.110;-1.706;2023-09-12T06:58:47;19.30;99.90
11035;DHT22;5571;48.110;-1.706;2023-09-12T07:01:13;19.40;99.90
11035;DHT22;5571;48.110;-1.706;2023-09-12T07:03:39;19.40;99.90
11035;DHT22;5571;48.110;-1.706;2023-09-12T07:06:04;19.50;99.90
11035;DHT22;5571;48.110;-1.706;2023-09-12T07:08:31;19.50;99.90
11035;DHT22;5571;48.110;-1.706;2023-09-12T07:10:57;19.60;99.90
11035;DHT22;5571;48.110;-1.706;2023-09-12T07:13:24;19.60;99.90
11035;DHT22;5571;48.110;-1.706;2023-09-12T07:15:50;19.70;99.90
11035;DHT22;5571;48.110;-1.706;2023-09-12T07:18:17;19.70;99.90
11035;DHT22;5571;48.110;-1.706;2023-09-12T07:20:43;19.70;99.90
11035;DHT22;5571;48.110;-1.706;2023-09-12T07:23:10;19.80;99.90
11035;DHT22;5571;48.110;-1.706;2023-09-12T07:25:38;19.80;99.90
11035;DHT22;5571;48.110;-1.706;2023-09-12T07:28:04;19.80;99.90
11035;DHT22;5571;48.110;-1.706;2023-09-12T07:30:30;19.80;99.90
11035;DHT22;5571;48.110;-1.706;2023-09-12T07:32:55;19.90;99.90
11035;DHT22;5571;48.110;-1.706;2023-09-12T07:35:21;20.00;99.90
11035;DHT22;5571;48.110;-1.706;2023-09-12T07:37:49;20.00;99.90
11035;DHT22;5571;48.110;-1.706;2023-09-12T07:40:15;20.10;99.90
11035;DHT22;5571;48.110;-1.706;2023-09-12T07:42:41;20.10;99.90
11035;DHT22;5571;48.110;-1.706;2023-09-12T07:45:07;20.10;99.90
11035;DHT22;5571;48.110;-1.706;2023-09-12T07:47:33;20.10;99.90
11035;DHT22;5571;48.110;-1.706;2023-09-12T07:49:59;20.10;99.90
11035;DHT22;5571;48.110;-1.706;2023-09-12T07:52:26;20.10;99.90
11035;DHT22;5571;48.110;-1.706;2023-09-12T07:54:59;20.20;99.90
11035;DHT22;5571;48.110;-1.706;2023-09-12T07:57:24;20.20;99.90
11035;DHT22;5571;48.110;-1.706;2023-09-12T07:59:50;20.20;99.90
11035;DHT22;5571;48.110;-1.706;2023-09-12T08:02:16;20.30;99.90
11035;DHT22;5571;48.110;-1.706;2023-09-12T08:04:42;20.30;99.90
11035;DHT22;5571;48.110;-1.706;2023-09-12T08:07:07;20.40;99.90
11035;DHT22;5571;48.110;-1.706;2023-09-12T08:09:53;20.30;99.90
11035;DHT22;5571;48.110;-1.706;2023-09-12T08:12:20;20.40;99.90
11035;DHT22;5571;48.110;-1.706;2023-09-12T08:14:46;20.60;99.90
11035;DHT22;5571;48.110;-1.706;2023-09-12T08:17:12;20.60;99.90
11035;DHT22;5571;48.110;-1.706;2023-09-12T08:19:39;20.80;99.90
11035;DHT22;5571;48.110;-1.706;2023-09-12T08:22:05;20.90;99.90
11035;DHT22;5571;48.110;-1.706;2023-09-12T08:24:31;21.00;99.90
11035;DHT22;5571;48.110;-1.706;2023-09-12T08:26:57;20.90;99.90
11035;DHT22;5571;48.110;-1.706;2023-09-12T08:29:22;20.90;99.90
11035;DHT22;5571;48.110;-1.706;2023-09-12T08:31:48;20.90;99.90
11035;DHT22;5571;48.110;-1.706;2023-09-12T08:34:14;21.00;99.90
11035;DHT22;5571;48.110;-1.706;2023-09-12T08:36:39;21.10;99.90
11035;DHT22;5571;48.110;-1.706;2023-09-12T08:39:05;21.10;99.90
11035;DHT22;5571;48.110;-1.706;2023-09-12T08:41:33;21.10;99.90
11035;DHT22;5571;48.110;-1.706;2023-09-12T08:43:59;21.30;99.90
11035;DHT22;5571;48.110;-1.706;2023-09-12T08:46:26;21.30;99.90
11035;DHT22;5571;48.110;-1.706;2023-09-12T08:48:52;21.50;99.90
11035;DHT22;5571;48.110;-1.706;2023-09-12T08:51:22;21.60;99.90
11035;DHT22;5571;48.110;-1.706;2023-09-12T08:53:52;21.80;99.90
11035;DHT22;5571;48.110;-1.706;2023-09-12T08:56:18;21.80;99.90
11035;DHT22;5571;48.110;-1.706;2023-09-12T08:58:44;21.90;99.90
11035;DHT22;5571;48.110;-1.706;2023-09-12T09:01:13;21.90;99.90
11035;DHT22;5571;48.110;-1.706;2023-09-12T09:03:40;22.00;99.90
11035;DHT22;5571;48.110;-1.706;2023-09-12T09:06:10;22.00;99.90
11035;DHT22;5571;48.110;-1.706;2023-09-12T09:08:36;22.00;99.90
11035;DHT22;5571;48.110;-1.706;2023-09-12T09:11:02;22.10;99.90
11035;DHT22;5571;48.110;-1.706;2023-09-12T09:13:29;22.20;99.90
11035;DHT22;5571;48.110;-1.706;2023-09-12T09:16:14;22.30;99.90
11035;DHT22;5571;48.110;-1.706;2023-09-12T09:18:59;22.50;99.90
11035;DHT22;5571;48.110;-1.706;2023-09-12T09:21:30;22.60;99.90
11035;DHT22;5571;48.110;-1.706;2023-09-12T09:23:58;22.70;99.90
11035;DHT22;5571;48.110;-1.706;2023-09-12T09:26:24;22.70;99.90
11035;DHT22;5571;48.110;-1.706;2023-09-12T09:29:10;22.70;99.90
11035;DHT22;5571;48.110;-1.706;2023-09-12T09:31:39;22.70;99.90
11035;DHT22;5571;48.110;-1.706;2023-09-12T09:34:14;22.70;99.90
11035;DHT22;5571;48.110;-1.706;2023-09-12T09:36:44;22.50;99.90
11035;DHT22;5571;48.110;-1.706;2023-09-12T09:39:10;22.50;99.90
11035;DHT22;5571;48.110;-1.706;2023-09-12T09:41:37;22.40;99.90
11035;DHT22;5571;48.110;-1.706;2023-09-12T09:44:08;22.40;99.90
11035;DHT22;5571;48.110;-1.706;2023-09-12T09:46:34;22.40;99.90
11035;DHT22;5571;48.110;-1.706;2023-09-12T09:49:00;22.60;99.90
11035;DHT22;5571;48.110;-1.706;2023-09-12T09:51:26;22.70;99.90
11035;DHT22;5571;48.110;-1.706;2023-09-12T09:53:53;22.70;99.90
11035;DHT22;5571;48.110;-1.706;2023-09-12T09:56:23;22.60;99.90
11035;DHT22;5571;48.110;-1.706;2023-09-12T09:58:53;22.50;99.90
11035;DHT22;5571;48.110;-1.706;2023-09-12T10:01:27;22.40;99.90
11035;DHT22;5571;48.110;-1.706;2023-09-12T10:03:57;22.30;99.90
11035;DHT22;5571;48.110;-1.706;2023-09-12T10:06:23;22.30;99.90
11035;DHT22;5571;48.110;-1.706;2023-09-12T10:08:53;22.30;99.90
11035;DHT22;5571;48.110;-1.706;2023-09-12T10:11:23;22.40;99.90
11035;DHT22;5571;48.110;-1.706;2023-09-12T10:14:07;22.40;99.90
11035;DHT22;5571;48.110;-1.706;2023-09-12T10:16:57;22.50;99.90
11035;DHT22;5571;48.110;-1.706;2023-09-12T10:19:25;22.70;99.90
11035;DHT22;5571;48.110;-1.706;2023-09-12T10:22:09;22.80;99.90
11035;DHT22;5571;48.110;-1.706;2023-09-12T10:24:39;22.80;99.90
11035;DHT22;5571;48.110;-1.706;2023-09-12T10:27:06;22.90;99.90
11035;DHT22;5571;48.110;-1.706;2023-09-12T10:29:32;23.20;99.90
11035;DHT22;5571;48.110;-1.706;2023-09-12T10:31:58;23.40;99.90
11035;DHT22;5571;48.110;-1.706;2023-09-12T10:34:25;23.70;99.90
11035;DHT22;5571;48.110;-1.706;2023-09-12T10:36:51;24.10;99.90
11035;DHT22;5571;48.110;-1.706;2023-09-12T10:39:19;24.40;99.90
11035;DHT22;5571;48.110;-1.706;2023-09-12T10:41:46;24.40;99.90
11035;DHT22;5571;48.110;-1.706;2023-09-12T10:44:17;24.40;99.90
11035;DHT22;5571;48.110;-1.706;2023-09-12T10:46:45;24.30;99.90
11035;DHT22;5571;48.110;-1.706;2023-09-12T10:49:13;24.40;99.90
11035;DHT22;5571;48.110;-1.706;2023-09-12T10:51:43;24.50;99.90
11035;DHT22;5571;48.110;-1.706;2023-09-12T10:54:09;24.60;99.90
11035;DHT22;5571;48.110;-1.706;2023-09-12T10:56:37;24.50;99.90
11035;DHT22;5571;48.110;-1.706;2023-09-12T11:01:43;24.50;99.90
11035;DHT22;5571;48.110;-1.706;2023-09-12T11:06:46;24.40;99.90
11035;DHT22;5571;48.110;-1.706;2023-09-12T11:09:23;24.30;99.90
11035;DHT22;5571;48.110;-1.706;2023-09-12T11:12:09;24.10;99.90
11035;DHT22;5571;48.110;-1.706;2023-09-12T11:15:05;24.10;99.90
11035;DHT22;5571;48.110;-1.706;2023-09-12T11:17:37;24.20;99.90
11035;DHT22;5571;48.110;-1.706;2023-09-12T11:20:03;24.40;99.90
11035;DHT22;5571;48.110;-1.706;2023-09-12T11:22:37;24.50;99.90
11035;DHT22;5571;48.110;-1.706;2023-09-12T11:25:05;24.60;99.90
11035;DHT22;5571;48.110;-1.706;2023-09-12T11:28:03;24.70;99.90
11035;DHT22;5571;48.110;-1.706;2023-09-12T11:30:30;24.60;99.90
11035;DHT22;5571;48.110;-1.706;2023-09-12T11:33:02;24.50;99.90
11035;DHT22;5571;48.110;-1.706;2023-09-12T11:35:28;24.20;99.90
11035;DHT22;5571;48.110;-1.706;2023-09-12T11:37:58;24.10;99.90
11035;DHT22;5571;48.110;-1.706;2023-09-12T11:43:00;23.90;99.90
11035;DHT22;5571;48.110;-1.706;2023-09-12T11:45:26;23.80;99.90
11035;DHT22;5571;48.110;-1.706;2023-09-12T11:47:53;23.80;99.90
11035;DHT22;5571;48.110;-1.706;2023-09-12T11:50:33;23.70;99.90
11035;DHT22;5571;48.110;-1.706;2023-09-12T11:53:09;23.80;99.90
11035;DHT22;5571;48.110;-1.706;2023-09-12T11:55:43;23.80;99.90
11035;DHT22;5571;48.110;-1.706;2023-09-12T11:58:11;23.90;99.90
11035;DHT22;5571;48.110;-1.706;2023-09-12T12:00:37;23.90;99.90
11035;DHT22;5571;48.110;-1.706;2023-09-12T12:03:03;23.90;99.90
11035;DHT22;5571;48.110;-1.706;2023-09-12T12:05:29;24.00;99.90
11035;DHT22;5571;48.110;-1.706;2023-09-12T12:07:55;24.10;99.90
11035;DHT22;5571;48.110;-1.706;2023-09-12T12:10:23;24.20;99.90
11035;DHT22;5571;48.110;-1.706;2023-09-12T12:12:53;24.30;99.90
11035;DHT22;5571;48.110;-1.706;2023-09-12T12:15:18;24.40;99.90
11035;DHT22;5571;48.110;-1.706;2023-09-12T12:17:44;24.40;99.90
11035;DHT22;5571;48.110;-1.706;2023-09-12T12:20:10;24.30;99.90
11035;DHT22;5571;48.110;-1.706;2023-09-12T12:22:37;24.30;99.90
11035;DHT22;5571;48.110;-1.706;2023-09-12T12:25:10;24.30;99.90
11035;DHT22;5571;48.110;-1.706;2023-09-12T12:27:37;24.20;99.90
11035;DHT22;5571;48.110;-1.706;2023-09-12T12:30:06;24.20;99.90
11035;DHT22;5571;48.110;-1.706;2023-09-12T12:32:32;24.20;99.90
11035;DHT22;5571;48.110;-1.706;2023-09-12T12:34:58;24.10;99.90
11035;DHT22;5571;48.110;-1.706;2023-09-12T12:37:29;24.10;99.90
11035;DHT22;5571;48.110;-1.706;2023-09-12T12:39:56;24.00;99.90
11035;DHT22;5571;48.110;-1.706;2023-09-12T12:42:21;24.10;99.90
11035;DHT22;5571;48.110;-1.706;2023-09-12T12:44:53;24.50;99.90
11035;DHT22;5571;48.110;-1.706;2023-09-12T12:47:21;24.70;99.90
11035;DHT22;5571;48.110;-1.706;2023-09-12T12:49:50;24.80;99.90
11035;DHT22;5571;48.110;-1.706;2023-09-12T12:52:16;24.80;99.90
11035;DHT22;5571;48.110;-1.706;2023-09-12T12:54:42;24.90;99.90
11035;DHT22;5571;48.110;-1.706;2023-09-12T12:57:12;25.30;99.90
11035;DHT22;5571;48.110;-1.706;2023-09-12T12:59:45;25.80;99.90
11035;DHT22;5571;48.110;-1.706;2023-09-12T13:02:11;26.20;99.90
11035;DHT22;5571;48.110;-1.706;2023-09-12T13:04:37;26.70;99.90
11035;DHT22;5571;48.110;-1.706;2023-09-12T13:07:03;27.30;99.90
11035;DHT22;5571;48.110;-1.706;2023-09-12T13:09:32;27.40;99.90
11035;DHT22;5571;48.110;-1.706;2023-09-12T13:11:57;27.60;99.90
11035;DHT22;5571;48.110;-1.706;2023-09-12T13:14:23;27.60;99.90
11035;DHT22;5571;48.110;-1.706;2023-09-12T13:16:59;27.50;99.90
11035;DHT22;5571;48.110;-1.706;2023-09-12T13:19:28;27.20;99.90
11035;DHT22;5571;48.110;-1.706;2023-09-12T13:21:54;26.90;99.90
11035;DHT22;5571;48.110;-1.706;2023-09-12T13:24:19;26.80;99.90
11035;DHT22;5571;48.110;-1.706;2023-09-12T13:26:45;26.70;99.90
11035;DHT22;5571;48.110;-1.706;2023-09-12T13:29:10;26.40;99.90
11035;DHT22;5571;48.110;-1.706;2023-09-12T13:31:37;26.10;99.90
11035;DHT22;5571;48.110;-1.706;2023-09-12T13:34:03;25.90;99.90
11035;DHT22;5571;48.110;-1.706;2023-09-12T13:36:33;25.80;99.90
11035;DHT22;5571;48.110;-1.706;2023-09-12T13:38:59;25.70;99.90
11035;DHT22;5571;48.110;-1.706;2023-09-12T13:41:26;25.70;99.90
11035;DHT22;5571;48.110;-1.706;2023-09-12T13:43:53;25.60;99.90
11035;DHT22;5571;48.110;-1.706;2023-09-12T13:46:19;25.60;99.90
11035;DHT22;5571;48.110;-1.706;2023-09-12T13:48:44;25.70;99.90
11035;DHT22;5571;48.110;-1.706;2023-09-12T13:51:10;26.00;99.90
11035;DHT22;5571;48.110;-1.706;2023-09-12T13:53:37;26.40;99.90
11035;DHT22;5571;48.110;-1.706;2023-09-12T13:56:03;26.60;99.90
11035;DHT22;5571;48.110;-1.706;2023-09-12T13:58:28;26.70;99.90
11035;DHT22;5571;48.110;-1.706;2023-09-12T14:00:54;27.00;99.90
11035;DHT22;5571;48.110;-1.706;2023-09-12T14:03:20;27.30;99.90
11035;DHT22;5571;48.110;-1.706;2023-09-12T14:05:47;27.40;99.90
11035;DHT22;5571;48.110;-1.706;2023-09-12T14:08:12;27.10;99.90
11035;DHT22;5571;48.110;-1.706;2023-09-12T14:10:38;26.90;99.90
11035;DHT22;5571;48.110;-1.706;2023-09-12T14:13:04;27.00;99.90
11035;DHT22;5571;48.110;-1.706;2023-09-12T14:15:29;26.90;99.90
11035;DHT22;5571;48.110;-1.706;2023-09-12T14:17:55;26.70;99.90
11035;DHT22;5571;48.110;-1.706;2023-09-12T14:20:21;26.50;99.90
11035;DHT22;5571;48.110;-1.706;2023-09-12T14:22:46;26.20;99.90
11035;DHT22;5571;48.110;-1.706;2023-09-12T14:25:12;25.90;99.90
11035;DHT22;5571;48.110;-1.706;2023-09-12T14:27:41;25.70;99.90
11035;DHT22;5571;48.110;-1.706;2023-09-12T14:30:08;25.70;99.90
11035;DHT22;5571;48.110;-1.706;2023-09-12T14:32:33;25.50;99.90
11035;DHT22;5571;48.110;-1.706;2023-09-12T14:34:59;25.60;99.90
11035;DHT22;5571;48.110;-1.706;2023-09-12T14:37:24;25.90;99.90
11035;DHT22;5571;48.110;-1.706;2023-09-12T14:39:53;25.80;99.90
11035;DHT22;5571;48.110;-1.706;2023-09-12T14:42:19;25.70;99.90
11035;DHT22;5571;48.110;-1.706;2023-09-12T14:44:44;25.50;99.90
11035;DHT22;5571;48.110;-1.706;2023-09-12T14:47:10;25.30;99.90
11035;DHT22;5571;48.110;-1.706;2023-09-12T14:49:35;25.30;99.90
11035;DHT22;5571;48.110;-1.706;2023-09-12T14:52:01;25.20;99.90
11035;DHT22;5571;48.110;-1.706;2023-09-12T14:54:27;25.10;99.90
11035;DHT22;5571;48.110;-1.706;2023-09-12T14:56:52;25.10;99.90
11035;DHT22;5571;48.110;-1.706;2023-09-12T14:59:18;25.10;99.90
11035;DHT22;5571;48.110;-1.706;2023-09-12T15:01:44;25.10;99.90
11035;DHT22;5571;48.110;-1.706;2023-09-12T15:04:10;25.10;99.90
11035;DHT22;5571;48.110;-1.706;2023-09-12T15:06:37;25.10;99.90
11035;DHT22;5571;48.110;-1.706;2023-09-12T15:09:03;25.10;99.90
11035;DHT22;5571;48.110;-1.706;2023-09-12T15:11:28;25.20;99.90
11035;DHT22;5571;48.110;-1.706;2023-09-12T15:13:54;25.60;99.90
11035;DHT22;5571;48.110;-1.706;2023-09-12T15:16:20;26.20;99.90
11035;DHT22;5571;48.110;-1.706;2023-09-12T15:18:45;26.40;99.90
11035;DHT22;5571;48.110;-1.706;2023-09-12T15:21:11;26.30;99.90
11035;DHT22;5571;48.110;-1.706;2023-09-12T15:23:36;26.10;99.90
11035;DHT22;5571;48.110;-1.706;2023-09-12T15:26:02;25.80;99.90
11035;DHT22;5571;48.110;-1.706;2023-09-12T15:28:28;25.60;99.90
11035;DHT22;5571;48.110;-1.706;2023-09-12T15:30:54;25.40;99.90
11035;DHT22;5571;48.110;-1.706;2023-09-12T15:33:20;25.30;99.90
11035;DHT22;5571;48.110;-1.706;2023-09-12T15:35:48;25.20;99.90
11035;DHT22;5571;48.110;-1.706;2023-09-12T15:38:13;25.10;99.90
11035;DHT22;5571;48.110;-1.706;2023-09-12T15:40:39;25.10;99.90
11035;DHT22;5571;48.110;-1.706;2023-09-12T15:43:05;25.20;99.90
11035;DHT22;5571;48.110;-1.706;2023-09-12T15:45:30;25.30;99.90